Willow Lake, South Dakota
Current Conditions -  °F | °C
As of 6:17 PM on Sunday 25 Jan 2015 (Local Time) from KATY Reporting Station
Overcast Overcast  
Wind Chill: 23°   Ceiling: 1600
Heat Index: 30°   Visibility: 10mi
Dew Point: 27°   Wind: 7mph
Humidity: 88%   Direction: 250°WSW
Pressure: 29.97"   Gusts: NA
Location:  44.63°N, 97.64°W
Report Text: KATY 260017Z AUTO 25006KT 10SM SCT008 OVC016 M01/M03 A2997 RMK AO2 T10111028
Loading
Personal Weather Stations






























Interactive Weather Map New forecast layout! Learn more

10-Day Weather Forecast

Advertisements
Track Severe Weather on mobile